Time;durP1;ratioP1;P1;durP2;ratioP2;P2;SDS_P1;SDS_P2;PMS_P1;PMS_P2;Temp;Humidity;BMP_temperature;BMP_pressure;BME280_temperature;BME280_humidity;BME280_pressure;Samples;Min_cycle;Max_cycle;Signal;HPM_P1;HPM_P2
2022/04/25 00:19:27;;;;;;;7.80;2.75;;;;;;;9.40;66.18;100234.16;5075714;28;20051;-60
2022/04/25 00:21:55;;;;;;;7.00;3.40;;;;;;;9.42;65.83;100224.66;5075508;28;20057;-60
2022/04/25 00:24:24;;;;;;;10.13;3.45;;;;;;;9.46;65.79;100221.16;5075953;28;20056;-59
2022/04/25 00:26:52;;;;;;;12.50;3.17;;;;;;;9.47;65.95;100215.09;5075229;28;20470;-60
2022/04/25 00:29:21;;;;;;;11.00;2.90;;;;;;;9.47;65.70;100220.28;5088804;28;20052;-60
2022/04/25 00:31:50;;;;;;;5.82;2.60;;;;;;;9.51;65.86;100220.25;5095731;28;20044;-60
2022/04/25 00:34:18;;;;;;;9.68;3.50;;;;;;;9.48;65.65;100211.63;5095873;28;20055;-60
2022/04/25 00:36:47;;;;;;;8.25;2.78;;;;;;;9.52;65.76;100221.94;5095429;28;20464;-60
2022/04/25 00:39:15;;;;;;;7.03;2.63;;;;;;;9.50;65.45;100214.22;5095537;28;20404;-60
2022/04/25 00:41:47;;;;;;;6.30;2.65;;;;;;;9.44;65.90;100209.97;5080506;28;20068;-60
2022/04/25 00:44:16;;;;;;;9.15;3.40;;;;;;;9.43;65.85;100210.84;5075145;28;20725;-59
2022/04/25 00:46:47;;;;;;;6.47;2.78;;;;;;;9.44;66.21;100214.28;5075375;28;20079;-60
2022/04/25 00:49:15;;;;;;;9.88;3.28;;;;;;;9.45;66.08;100211.69;5075236;28;20052;-60
2022/04/25 00:51:43;;;;;;;11.15;4.22;;;;;;;9.46;66.04;100205.63;5075426;28;20059;-60
2022/04/25 00:54:12;;;;;;;9.57;3.97;;;;;;;9.48;66.21;100210.78;5075162;28;20094;-60
2022/04/25 00:56:41;;;;;;;6.63;3.30;;;;;;;9.49;66.29;100205.59;5075047;28;20044;-59
2022/04/25 00:59:10;;;;;;;14.13;4.22;;;;;;;9.49;65.11;100203.00;5074854;28;20053;-59
2022/04/25 01:01:38;;;;;;;10.98;3.50;;;;;;;9.51;65.54;100207.31;5075765;28;20088;-59
2022/04/25 01:04:06;;;;;;;12.13;3.95;;;;;;;9.53;65.80;100208.13;5095387;28;20469;-59
2022/04/25 01:06:34;;;;;;;9.95;2.90;;;;;;;9.55;65.44;100206.38;5095382;28;20110;-62
2022/04/25 01:09:02;;;;;;;9.45;3.47;;;;;;;9.57;65.63;100210.66;5095289;28;20192;-61
2022/04/25 01:11:35;;;;;;;9.93;3.65;;;;;;;9.57;65.40;100204.63;5094838;28;20079;-61
2022/04/25 01:14:13;;;;;;;8.50;3.28;;;;;;;9.56;65.36;100197.75;5062071;28;20052;-60
2022/04/25 01:16:41;;;;;;;6.28;2.72;;;;;;;9.51;65.46;100195.22;5054666;28;20085;-60
2022/04/25 01:19:09;;;;;;;8.98;3.13;;;;;;;9.51;65.44;100199.53;5054489;28;20057;-59
2022/04/25 01:21:42;;;;;;;5.88;2.55;;;;;;;9.50;65.55;100193.50;5054445;28;20089;-60
2022/04/25 01:29:44;;;;;;;11.85;3.10;;;;;;;9.47;65.76;100191.81;5037818;28;20089;-60
2022/04/25 01:32:12;;;;;;;6.20;2.67;;;;;;;9.47;65.90;100189.22;5034344;28;20053;-60
2022/04/25 01:34:41;;;;;;;4.95;2.33;;;;;;;9.46;66.07;100197.88;5034552;28;20049;-59
2022/04/25 01:37:11;;;;;;;6.63;2.92;;;;;;;9.44;65.88;100189.28;5034377;28;20451;-60
2022/04/25 01:39:42;;;;;;;7.57;3.10;;;;;;;9.43;65.46;100187.56;5034525;28;20403;-60
2022/04/25 01:42:10;;;;;;;7.65;3.28;;;;;;;9.44;65.40;100189.28;5052467;28;20091;-60
2022/04/25 01:44:39;;;;;;;6.63;2.80;;;;;;;9.40;66.18;100187.59;5053961;28;20084;-60
2022/04/25 01:47:08;;;;;;;6.43;2.85;;;;;;;9.38;65.62;100189.34;5053421;28;20068;-60
2022/04/25 01:49:37;;;;;;;7.90;2.90;;;;;;;9.38;65.96;100184.16;5053856;28;20064;-60
2022/04/25 01:52:07;;;;;;;8.38;3.30;;;;;;;9.41;66.00;100184.13;5043613;28;20064;-60
2022/04/25 01:54:35;;;;;;;7.63;2.55;;;;;;;9.43;65.49;100178.94;5033788;28;20422;-60
2022/04/25 01:57:05;;;;;;;5.75;2.53;;;;;;;9.44;65.50;100184.09;5033713;28;20506;-60
2022/04/25 01:59:32;;;;;;;9.40;3.47;;;;;;;9.46;66.00;100177.16;5048337;28;20068;-59
2022/04/25 02:02:01;;;;;;;7.18;2.95;;;;;;;9.51;65.95;100179.69;5054030;28;20056;-60
2022/04/25 02:04:29;;;;;;;5.93;2.55;;;;;;;9.57;65.19;100178.75;5053804;28;20072;-60
2022/04/25 02:06:57;;;;;;;8.02;2.85;;;;;;;9.58;65.42;100170.97;5053755;28;20084;-58
2022/04/25 02:09:25;;;;;;;5.53;2.80;;;;;;;9.59;65.39;100174.41;5053779;28;20057;-59
2022/04/25 02:11:53;;;;;;;6.80;2.72;;;;;;;9.58;65.32;100181.31;5035545;28;20398;-60
2022/04/25 02:14:22;;;;;;;5.88;2.67;;;;;;;9.57;65.47;100173.59;5051486;28;20549;-59
2022/04/25 02:16:50;;;;;;;5.82;2.65;;;;;;;9.59;65.15;100166.66;5055985;28;20152;-58
2022/04/25 02:19:18;;;;;;;9.70;2.97;;;;;;;9.60;65.63;100165.78;5073394;28;20063;-58
2022/04/25 02:21:47;;;;;;;8.60;2.80;;;;;;;9.60;65.64;100173.53;5073107;28;20488;-60
2022/04/25 02:24:15;;;;;;;8.95;3.50;;;;;;;9.59;65.31;100166.66;5073191;28;20448;-60
2022/04/25 02:26:43;;;;;;;7.07;2.45;;;;;;;9.57;65.81;100168.41;5072993;28;20048;-60
2022/04/25 02:29:11;;;;;;;9.77;3.13;;;;;;;9.59;65.11;100166.66;5061010;28;20111;-60
2022/04/25 02:31:40;;;;;;;7.70;2.78;;;;;;;9.60;65.49;100169.22;5053133;28;20458;-60
2022/04/25 02:34:08;;;;;;;8.90;3.33;;;;;;;9.61;65.42;100162.31;5053401;28;20049;-59
2022/04/25 02:36:36;;;;;;;6.60;2.70;;;;;;;9.60;65.43;100160.59;5053357;28;20084;-58
2022/04/25 02:39:04;;;;;;;5.78;2.50;;;;;;;9.60;65.60;100153.69;5053254;28;20052;-58
2022/04/25 02:41:32;;;;;;;6.97;2.90;;;;;;;9.61;65.35;100157.13;5066468;28;20052;-60
2022/04/25 02:44:02;;;;;;;8.88;2.88;;;;;;;9.59;65.42;100156.31;5072918;28;20052;-58
2022/04/25 02:46:31;;;;;;;6.97;2.85;;;;;;;9.61;65.69;100154.56;5073169;28;20056;-59
2022/04/25 02:49:00;;;;;;;8.52;3.50;;;;;;;9.62;65.06;100162.28;5053208;28;20129;-59
2022/04/25 02:51:27;;;;;;;6.85;3.13;;;;;;;9.63;65.08;100157.97;5052899;28;20059;-59
2022/04/25 02:53:55;;;;;;;10.00;3.08;;;;;;;9.65;65.42;100161.41;5053065;28;20045;-59
2022/04/25 02:56:23;;;;;;;8.10;2.92;;;;;;;9.67;65.25;100157.06;5072413;28;20055;-58
2022/04/25 02:58:51;;;;;;;7.28;2.90;;;;;;;9.68;65.09;100156.19;5072921;28;20071;-60
2022/04/25 03:01:19;;;;;;;7.57;3.10;;;;;;;9.70;65.10;100159.59;5071939;28;20058;-59
2022/04/25 03:03:46;;;;;;;6.30;2.92;;;;;;;9.69;65.18;100153.56;5072700;28;20450;-58
2022/04/25 03:06:16;;;;;;;8.23;2.75;;;;;;;9.73;64.65;100154.38;5072850;28;20067;-59
2022/04/25 03:08:43;;;;;;;11.52;4.05;;;;;;;9.72;64.76;100155.25;5073026;28;20060;-60
2022/04/25 03:11:11;;;;;;;10.13;3.40;;;;;;;9.73;64.92;100159.56;5072623;28;20061;-60
2022/04/25 03:13:39;;;;;;;8.80;3.10;;;;;;;9.75;65.34;100157.78;5072253;28;20057;-59
2022/04/25 03:16:07;;;;;;;7.30;3.38;;;;;;;9.76;64.89;100159.50;5072302;28;20114;-59
2022/04/25 03:18:35;;;;;;;5.55;3.10;;;;;;;9.78;64.73;100165.53;5072707;28;20047;-57
2022/04/25 03:21:04;;;;;;;10.60;2.83;;;;;;;9.82;64.98;100152.50;5072600;28;20059;-59
2022/04/25 03:23:36;;;;;;;11.88;4.30;;;;;;;9.85;64.12;100159.38;5072456;28;20062;-59
2022/04/25 03:26:04;;;;;;;8.57;3.38;;;;;;;9.85;64.76;100154.19;5072070;28;20664;-59
2022/04/25 03:28:33;;;;;;;9.80;4.10;;;;;;;9.85;64.27;100154.19;5065653;28;20592;-60
2022/04/25 03:31:00;;;;;;;10.18;3.90;;;;;;;9.82;64.65;100149.06;5052121;28;20041;-58
2022/04/25 03:33:31;;;;;;;8.68;3.50;;;;;;;9.81;64.87;100157.72;5052212;28;20056;-58
2022/04/25 03:36:00;;;;;;;8.25;3.45;;;;;;;9.81;64.53;100157.72;5052248;28;20041;-59
2022/04/25 03:38:28;;;;;;;10.48;3.33;;;;;;;9.81;64.87;100163.75;5056162;28;20048;-58
2022/04/25 03:41:02;;;;;;;9.20;3.60;;;;;;;9.80;64.38;100156.00;5065143;28;20107;-59
2022/04/25 03:43:31;;;;;;;10.32;3.63;;;;;;;9.77;64.73;100158.63;5076602;28;20059;-59
2022/04/25 03:46:00;;;;;;;8.50;3.42;;;;;;;9.74;64.82;100156.94;5076322;28;20454;-59
2022/04/25 03:48:27;;;;;;;6.85;2.83;;;;;;;9.73;65.04;100159.56;5076524;28;20059;-58
2022/04/25 03:50:55;;;;;;;11.02;3.78;;;;;;;9.73;64.97;100159.56;5075738;28;20429;-58
2022/04/25 03:53:23;;;;;;;6.75;3.67;;;;;;;9.73;64.98;100165.59;5076723;28;20080;-58
2022/04/25 03:58:42;;;;;;;8.32;3.28;;;;;;;9.73;65.05;100164.72;5076342;28;20051;-58
2022/04/25 04:01:10;;;;;;;8.98;3.95;;;;;;;9.76;64.96;100164.69;5076413;28;20053;-58
2022/04/25 04:03:38;;;;;;;7.93;3.45;;;;;;;9.78;65.19;100168.09;5076456;28;20052;-59
2022/04/25 04:06:05;;;;;;;9.75;3.53;;;;;;;9.82;64.96;100170.63;5076309;28;20052;-60
2022/04/25 04:08:33;;;;;;;10.23;3.75;;;;;;;9.82;64.89;100164.59;5076271;28;20106;-59
2022/04/25 04:11:01;;;;;;;8.27;3.40;;;;;;;9.82;65.45;100167.19;5076376;28;20052;-59
2022/04/25 04:13:28;;;;;;;10.65;4.20;;;;;;;9.82;64.79;100159.41;5075652;28;20060;-58
2022/04/25 04:15:57;;;;;;;9.07;4.18;;;;;;;9.82;65.04;100169.78;5075627;28;20362;-58
2022/04/25 04:18:25;;;;;;;10.18;3.40;;;;;;;9.81;65.29;100171.50;5075980;28;20238;-58
2022/04/25 04:20:53;;;;;;;8.18;3.70;;;;;;;9.82;65.11;100165.44;5075367;28;20373;-60
2022/04/25 04:23:20;;;;;;;7.70;3.00;;;;;;;9.80;65.43;100171.53;5075893;28;20060;-59
2022/04/25 04:25:48;;;;;;;28.02;3.90;;;;;;;9.79;65.58;100169.81;5075282;28;20060;-58
2022/04/25 04:28:16;;;;;;;10.88;4.40;;;;;;;9.78;65.06;100178.47;5071383;28;20064;-60
2022/04/25 04:30:46;;;;;;;7.97;3.70;;;;;;;9.78;65.86;100173.28;5055757;28;20079;-60
2022/04/25 04:33:15;;;;;;;11.25;3.75;;;;;;;9.78;65.48;100173.28;5055628;28;20458;-59
2022/04/25 04:38:41;;;;;;;11.15;4.10;;;;;;;9.78;65.52;100178.47;4994410;28;20589;-60
2022/04/25 04:41:08;;;;;;;9.07;3.78;;;;;;;9.78;65.41;100181.03;5050840;28;20063;-60
2022/04/25 04:43:36;;;;;;;8.90;3.53;;;;;;;9.79;65.85;100180.16;5075693;28;20044;-60
2022/04/25 04:46:04;;;;;;;8.43;3.35;;;;;;;9.79;65.65;100175.84;5075518;28;20049;-59
2022/04/25 04:48:33;;;;;;;9.50;3.92;;;;;;;9.78;66.02;100178.47;5058269;28;20067;-59
2022/04/25 04:51:01;;;;;;;8.45;3.30;;;;;;;9.80;66.04;100181.88;5055254;28;20053;-59
2022/04/25 04:53:29;;;;;;;10.52;3.80;;;;;;;9.76;65.84;100180.22;5055316;28;20115;-59
2022/04/25 04:55:56;;;;;;;7.68;3.47;;;;;;;9.76;66.17;100180.22;5054984;28;20060;-60
2022/04/25 04:58:24;;;;;;;8.25;4.03;;;;;;;9.78;66.50;100183.63;5055074;28;20442;-60
2022/04/25 05:00:52;;;;;;;8.23;3.05;;;;;;;9.81;66.21;100184.44;5055110;28;20173;-59
2022/04/25 05:03:20;;;;;;;6.70;3.30;;;;;;;9.82;66.90;100186.16;5055231;28;20065;-60
2022/04/25 05:05:49;;;;;;;10.32;3.92;;;;;;;9.82;67.28;100190.47;5059314;28;20052;-60
2022/04/25 05:08:17;;;;;;;8.82;4.07;;;;;;;9.81;67.76;100188.78;5075419;28;20056;-60
2022/04/25 05:10:44;;;;;;;12.55;4.97;;;;;;;9.80;67.69;100192.22;5074955;28;20478;-60
2022/04/25 05:13:12;;;;;;;8.30;4.22;;;;;;;9.79;67.32;100200.88;5074611;28;20072;-59
2022/04/25 05:15:40;;;;;;;10.35;4.15;;;;;;;9.78;67.90;100202.63;5074963;28;20091;-59
2022/04/25 05:18:08;;;;;;;9.57;3.80;;;;;;;9.78;67.30;100204.34;5074966;28;20357;-59
2022/04/25 05:20:35;;;;;;;10.45;3.38;;;;;;;9.74;67.62;100197.50;5075157;28;20053;-59
2022/04/25 05:23:05;;;;;;;8.70;3.38;;;;;;;9.71;67.82;100200.13;5075127;28;20059;-60
2022/04/25 05:25:35;;;;;;;8.75;3.15;;;;;;;9.69;68.19;100194.13;5074931;28;20049;-59
2022/04/25 05:28:03;;;;;;;7.72;3.22;;;;;;;9.68;68.02;100207.94;5072116;28;20063;-59
2022/04/25 05:30:31;;;;;;;8.85;3.42;;;;;;;9.64;68.55;100203.69;5054666;28;20065;-59
2022/04/25 05:33:02;;;;;;;10.38;3.90;;;;;;;9.62;68.91;100205.44;5054312;28;20540;-59
2022/04/25 05:35:31;;;;;;;9.32;3.30;;;;;;;9.62;69.31;100202.84;5054846;28;20045;-58
2022/04/25 05:37:59;;;;;;;8.07;2.95;;;;;;;9.57;69.54;100202.03;5054285;28;20052;-60
2022/04/25 05:40:28;;;;;;;8.55;3.40;;;;;;;9.59;69.83;100202.88;5058547;28;20080;-60
2022/04/25 05:42:57;;;;;;;10.20;4.40;;;;;;;9.59;71.20;100208.91;5074336;28;20063;-59
2022/04/25 05:45:26;;;;;;;7.18;3.85;;;;;;;9.61;70.04;100206.31;5065242;28;20049;-59
2022/04/25 05:47:55;;;;;;;9.00;3.72;;;;;;;9.57;71.70;100215.84;5059159;28;20044;-59
2022/04/25 05:53:09;;;;;;;;;;;;;;;9.53;71.89;100214.16;5072581;28;20056;-57
2022/04/25 05:55:39;;;;;;;7.82;3.33;;;;;;;9.55;70.97;100211.56;5073822;28;19932;-57
2022/04/25 05:58:08;;;;;;;7.93;3.75;;;;;;;9.59;70.86;100218.41;5074058;28;20048;-59
2022/04/25 06:00:36;;;;;;;8.55;4.03;;;;;;;9.60;70.10;100214.94;5064732;28;20060;-54
2022/04/25 06:03:04;;;;;;;9.00;4.20;;;;;;;9.60;71.03;100220.13;5066025;28;20465;-55
2022/04/25 06:05:34;;;;;;;9.45;3.90;;;;;;;9.61;70.27;100217.50;5075971;28;20063;-53
2022/04/25 06:08:02;;;;;;;8.15;3.33;;;;;;;9.58;70.68;100214.09;5067916;28;20048;-54
2022/04/25 06:10:30;;;;;;;8.23;3.58;;;;;;;9.67;70.68;100220.03;5069392;28;20083;-54
2022/04/25 06:12:59;;;;;;;10.27;3.92;;;;;;;9.69;70.32;100226.03;5066107;28;20061;-53
2022/04/25 06:15:27;;;;;;;6.63;3.60;;;;;;;9.66;69.98;100228.66;5053278;28;20060;-52
2022/04/25 06:17:56;;;;;;;11.05;4.95;;;;;;;9.66;69.96;100218.31;5053018;28;20059;-56
2022/04/25 06:20:25;;;;;;;7.20;4.10;;;;;;;9.64;70.52;100224.38;5051814;28;20080;-53
2022/04/25 06:22:54;;;;;;;8.93;3.67;;;;;;;9.65;70.71;100223.50;5052900;28;20060;-52
2022/04/25 06:25:23;;;;;;;8.88;3.78;;;;;;;9.66;70.28;100230.38;5052725;28;20053;-54
2022/04/25 06:27:53;;;;;;;8.77;4.00;;;;;;;9.67;69.93;100221.75;5051369;28;20051;-54
2022/04/25 06:30:23;;;;;;;9.85;4.13;;;;;;;9.69;70.11;100222.59;5052683;28;20115;-53
2022/04/25 06:32:52;;;;;;;9.27;4.25;;;;;;;9.67;70.09;100219.16;5052859;28;20143;-51
2022/04/25 06:35:20;;;;;;;8.27;3.78;;;;;;;9.70;70.17;100224.28;5052928;28;20072;-52
2022/04/25 06:37:48;;;;;;;11.00;4.60;;;;;;;9.68;70.02;100228.63;5052535;28;20148;-54
2022/04/25 06:40:15;;;;;;;9.43;4.50;;;;;;;9.71;69.76;100228.59;5052270;28;20078;-51
2022/04/25 06:42:43;;;;;;;7.75;4.05;;;;;;;9.75;69.82;100225.09;5052469;28;20044;-52
2022/04/25 06:45:12;;;;;;;12.38;4.63;;;;;;;9.78;69.84;100222.47;5052501;28;20132;-52
2022/04/25 06:47:42;;;;;;;10.18;4.00;;;;;;;9.80;69.51;100228.47;5048174;28;20722;-54
2022/04/25 06:50:11;;;;;;;10.20;4.65;;;;;;;9.81;69.64;100225.88;5052377;28;20124;-55
2022/04/25 06:52:39;;;;;;;9.30;4.00;;;;;;;9.84;69.60;100230.16;5052650;28;20064;-57
2022/04/25 06:55:08;;;;;;;7.43;3.95;;;;;;;9.85;69.18;100231.84;5052314;28;20049;-51
2022/04/25 06:57:36;;;;;;;8.65;3.92;;;;;;;9.83;69.49;100231.03;5051328;28;20100;-55
2022/04/25 07:00:08;;;;;;;8.80;3.67;;;;;;;9.83;69.86;100236.19;5052112;28;20087;-57
2022/04/25 07:02:36;;;;;;;9.48;3.58;;;;;;;9.83;69.13;100225.84;5052480;28;20243;-53
2022/04/25 07:05:07;;;;;;;5.70;3.35;;;;;;;9.85;69.84;100231.84;5052349;28;20057;-53
2022/04/25 07:07:34;;;;;;;9.15;4.10;;;;;;;9.88;69.43;100226.63;5052177;28;20080;-56
2022/04/25 07:10:03;;;;;;;6.75;3.28;;;;;;;9.88;69.60;100226.63;5051718;28;20060;-57
2022/04/25 07:12:34;;;;;;;8.95;3.38;;;;;;;9.87;69.50;100235.28;5053953;28;20055;-58
2022/04/25 07:15:02;;;;;;;5.95;3.15;;;;;;;9.87;70.35;100235.28;5072227;28;20049;-58
2022/04/25 07:17:30;;;;;;;9.13;3.30;;;;;;;9.89;70.05;100233.56;5070791;28;20049;-58
2022/04/25 07:19:58;;;;;;;7.32;3.33;;;;;;;9.91;69.99;100230.94;5072344;28;20048;-58
2022/04/25 07:30:44;;;;;;;6.60;3.67;;;;;;;9.86;70.15;100233.56;5071876;28;20055;-58
2022/04/25 07:33:12;;;;;;;7.45;4.07;;;;;;;9.86;69.52;100233.56;5069823;28;20044;-57
2022/04/25 07:35:40;;;;;;;8.02;3.08;;;;;;;9.85;69.80;100242.22;5070416;28;20045;-57
2022/04/25 07:38:10;;;;;;;5.75;3.30;;;;;;;9.82;70.07;100247.44;5069791;28;20125;-57
2022/04/25 07:40:38;;;;;;;7.55;3.05;;;;;;;9.82;69.81;100244.84;5071935;28;20067;-58
2022/04/25 07:43:06;;;;;;;8.07;3.20;;;;;;;9.81;70.18;100248.31;5071837;28;20063;-58
2022/04/25 07:45:34;;;;;;;8.05;3.30;;;;;;;9.79;70.26;100252.66;5070718;28;20119;-56
2022/04/25 07:48:02;;;;;;;9.32;3.80;;;;;;;9.79;70.62;100247.47;5071187;28;20088;-56
2022/04/25 07:50:29;;;;;;;8.70;3.10;;;;;;;9.77;70.72;100247.50;5071275;28;20044;-58
2022/04/25 07:52:57;;;;;;;8.80;3.28;;;;;;;9.78;70.33;100250.94;5071628;28;20136;-54
2022/04/25 07:55:26;;;;;;;8.43;3.13;;;;;;;9.76;70.46;100250.97;5071979;28;20058;-56
2022/04/25 07:57:53;;;;;;;6.03;3.22;;;;;;;9.76;70.87;100247.50;5072042;28;20063;-56
2022/04/25 08:00:21;;;;;;;6.22;2.97;;;;;;;9.74;70.95;100251.84;5071826;28;20132;-57
2022/04/25 08:02:49;;;;;;;6.45;3.28;;;;;;;9.72;70.52;100251.88;5072312;28;20056;-55
2022/04/25 08:05:17;;;;;;;8.68;3.35;;;;;;;9.73;71.11;100256.16;5071583;28;20060;-56
2022/04/25 08:07:45;;;;;;;6.32;3.08;;;;;;;9.74;71.11;100259.63;5071949;28;20710;-55
2022/04/25 08:10:12;;;;;;;5.57;2.97;;;;;;;9.75;70.80;100256.16;5072074;28;20049;-55
2022/04/25 08:18:08;;;;;;;6.38;2.50;;;;;;;9.76;71.02;100257.88;4977724;28;20101;-57
2022/04/25 08:20:37;;;;;;;6.53;2.88;;;;;;;9.75;71.25;100261.31;4979433;28;20090;-57
2022/04/25 08:23:08;;;;;;;7.43;3.00;;;;;;;9.74;71.71;100262.22;4984821;28;20428;-56
2022/04/25 08:25:34;;;;;;;5.38;2.83;;;;;;;9.70;72.38;100269.16;4986815;28;20054;-53
2022/04/25 08:28:04;;;;;;;4.97;3.38;;;;;;;9.71;72.26;100270.88;4988256;28;20055;-55
2022/04/25 08:30:32;;;;;;;7.00;2.88;;;;;;;9.73;72.20;100273.44;4976118;28;20565;-53
2022/04/25 08:33:01;;;;;;;6.55;3.40;;;;;;;9.78;72.47;100266.47;4973887;28;20074;-53
2022/04/25 08:35:29;;;;;;;7.63;3.50;;;;;;;9.79;72.38;100268.19;4975281;28;20050;-55
2022/04/25 08:37:56;;;;;;;8.13;3.80;;;;;;;9.82;72.63;100266.41;4982995;28;20058;-55
2022/04/25 08:40:25;;;;;;;8.32;3.70;;;;;;;9.91;72.82;100275.81;4988728;28;20054;-52
2022/04/25 08:42:54;;;;;;;6.55;3.70;;;;;;;9.94;72.83;100277.50;4993819;28;20116;-53
2022/04/25 08:45:24;;;;;;;6.15;3.72;;;;;;;9.95;72.68;100280.06;4977375;28;20595;-55
2022/04/25 08:47:54;;;;;;;5.70;3.58;;;;;;;9.97;72.84;100283.50;4982598;28;20491;-54
2022/04/25 08:50:23;;;;;;;5.57;3.60;;;;;;;10.02;72.87;100286.88;4982173;28;20050;-57
2022/04/25 08:52:52;;;;;;;3.63;2.50;;;;;;;10.03;72.41;100283.41;5026562;28;20059;-55
2022/04/25 08:55:21;;;;;;;4.47;2.30;;;;;;;10.04;72.41;100290.31;5054783;28;20057;-57
2022/04/25 08:57:51;;;;;;;3.25;1.88;;;;;;;10.06;72.68;100287.69;5055034;28;20047;-52
2022/04/25 09:00:18;;;;;;;5.82;2.78;;;;;;;10.07;73.18;100289.41;5054867;28;20059;-53
2022/04/25 09:02:47;;;;;;;9.68;3.22;;;;;;;10.09;73.10;100288.50;5054438;28;20063;-56
2022/04/25 09:05:16;;;;;;;4.72;2.50;;;;;;;10.12;72.82;100293.66;5054281;28;20052;-55
2022/04/25 09:07:44;;;;;;;4.18;2.20;;;;;;;10.13;72.75;100297.09;5054376;28;20369;-56
2022/04/25 09:10:12;;;;;;;11.73;4.93;;;;;;;10.16;72.80;100298.78;5054937;28;20055;-57
2022/04/25 09:12:41;;;;;;;9.15;4.32;;;;;;;10.16;73.97;100296.19;5054654;28;20061;-56
2022/04/25 09:15:08;;;;;;;12.18;5.88;;;;;;;10.19;73.82;100298.75;5054391;28;20095;-54
2022/04/25 09:17:39;;;;;;;9.40;4.85;;;;;;;10.25;73.25;100299.53;5055269;28;20132;-54
2022/04/25 09:20:10;;;;;;;7.40;4.40;;;;;;;10.32;73.33;100300.31;5054807;28;20131;-59
2022/04/25 09:22:40;;;;;;;4.25;2.90;;;;;;;10.37;72.85;100308.88;5054135;28;20618;-56
2022/04/25 09:25:07;;;;;;;4.90;3.20;;;;;;;10.40;72.93;100301.06;5054271;28;20045;-53
2022/04/25 09:27:36;;;;;;;5.63;2.55;;;;;;;10.42;72.60;100299.34;5054132;28;20081;-56
2022/04/25 09:30:20;;;;;;;5.50;3.15;;;;;;;10.41;72.04;100292.44;5053580;28;20055;-57
2022/04/25 09:32:50;;;;;;;4.65;2.90;;;;;;;10.35;71.34;100295.94;5054278;28;20057;-62
2022/04/25 09:35:37;;;;;;;5.45;3.10;;;;;;;10.35;71.52;100303.72;5054228;28;20060;-51
2022/04/25 09:38:29;;;;;;;5.57;3.25;;;;;;;10.34;71.44;100303.75;5047522;28;20036;-55
2022/04/25 09:40:56;;;;;;;6.07;3.42;;;;;;;10.31;71.58;100308.97;5053894;28;20445;-54
2022/04/25 09:43:30;;;;;;;6.55;3.42;;;;;;;10.34;71.39;100319.28;5053684;28;20500;-55
2022/04/25 09:46:02;;;;;;;7.72;3.38;;;;;;;10.33;71.58;100309.81;5054119;28;20053;-53
2022/04/25 09:48:29;;;;;;;8.00;4.38;;;;;;;10.34;71.30;100308.91;5046639;28;20059;-52
2022/04/25 09:51:03;;;;;;;7.40;4.63;;;;;;;10.33;70.78;100312.38;5056438;28;20056;-52
2022/04/25 09:53:42;;;;;;;7.88;4.22;;;;;;;10.28;70.85;100309.00;5055931;28;20048;-55
2022/04/25 09:56:15;;;;;;;11.43;4.32;;;;;;;10.26;71.25;100313.34;5053686;28;20087;-53
2022/04/25 09:58:44;;;;;;;10.40;4.80;;;;;;;10.24;71.09;100313.38;5053752;28;20049;-51
2022/04/25 10:01:13;;;;;;;9.15;4.75;;;;;;;10.25;71.48;100317.69;5053627;28;20049;-53
2022/04/25 10:03:45;;;;;;;10.23;4.85;;;;;;;10.24;71.09;100312.53;5053698;28;20052;-54
2022/04/25 10:06:14;;;;;;;11.63;4.85;;;;;;;10.24;70.74;100322.88;5053587;28;20053;-55
2022/04/25 10:08:42;;;;;;;7.90;4.72;;;;;;;10.21;70.90;100320.34;5053639;28;20385;-53
2022/04/25 10:11:12;;;;;;;10.68;4.75;;;;;;;10.20;70.72;100322.06;5052810;28;20064;-52
2022/04/25 10:13:39;;;;;;;7.47;5.00;;;;;;;10.20;71.80;100321.19;5064631;28;20135;-53
2022/04/25 10:16:07;;;;;;;10.98;4.80;;;;;;;10.22;71.91;100324.63;5073426;28;20071;-53
2022/04/25 10:18:36;;;;;;;7.32;4.25;;;;;;;10.25;71.56;100325.44;5073393;28;20059;-51
2022/04/25 10:21:04;;;;;;;9.00;4.57;;;;;;;10.28;71.81;100324.56;5072994;28;20048;-57
2022/04/25 10:23:34;;;;;;;8.00;4.28;;;;;;;10.33;71.71;100327.94;5072551;28;20520;-56
2022/04/25 10:26:02;;;;;;;8.05;5.28;;;;;;;10.30;71.24;100327.97;5067449;28;20063;-55
2022/04/25 10:28:34;;;;;;;8.07;4.82;;;;;;;10.24;71.46;100328.91;5069299;28;20040;-55
2022/04/25 10:31:04;;;;;;;8.02;4.53;;;;;;;10.19;71.41;100330.69;5072005;28;20052;-52
2022/04/25 10:33:49;;;;;;;9.25;5.30;;;;;;;10.21;71.85;100338.47;5072124;28;20531;-51
2022/04/25 10:36:45;;;;;;;14.43;5.85;;;;;;;10.20;71.84;100336.72;5070330;28;20080;-54
2022/04/25 10:39:15;;;;;;;7.60;3.90;;;;;;;10.14;70.95;100337.66;5060891;28;20064;-54
2022/04/25 10:44:56;;;;;;;5.35;3.85;;;;;;;10.09;71.69;100347.22;5072650;28;20043;-53
2022/04/25 10:47:25;;;;;;;7.90;4.43;;;;;;;10.13;71.64;100357.53;5064930;28;20049;-56
2022/04/25 10:50:02;;;;;;;9.45;4.20;;;;;;;10.17;71.79;100354.91;5072389;28;20461;-56
2022/04/25 10:55:42;;;;;;;7.55;3.70;;;;;;;10.18;72.08;100354.03;5062228;28;20194;-52
2022/04/25 10:58:19;;;;;;;7.68;4.30;;;;;;;10.23;71.60;100357.44;5072915;28;20139;-55
2022/04/25 11:00:57;;;;;;;10.10;4.53;;;;;;;10.18;71.17;100356.59;5072554;28;20049;-55
2022/04/25 11:03:30;;;;;;;8.35;4.13;;;;;;;10.15;71.46;100359.25;5072368;28;20063;-54
2022/04/25 11:06:03;;;;;;;10.75;4.68;;;;;;;10.09;71.32;100361.03;5071985;28;20040;-54
2022/04/25 11:08:32;;;;;;;9.88;4.43;;;;;;;10.07;71.87;100362.78;5070565;28;20046;-54
2022/04/25 11:11:13;;;;;;;9.38;4.47;;;;;;;10.07;71.30;100370.56;5072332;28;20068;-62
2022/04/25 11:14:12;;;;;;;10.20;5.07;;;;;;;10.06;71.23;100366.25;5060518;28;20053;-57
2022/04/25 11:16:40;;;;;;;8.63;5.30;;;;;;;10.03;71.41;100371.47;5052352;28;20478;-59
2022/04/25 11:19:09;;;;;;;12.60;5.47;;;;;;;10.06;71.33;100375.75;5052353;28;20131;-55
2022/04/25 11:21:36;;;;;;;11.98;5.30;;;;;;;10.07;71.18;100377.47;5051366;28;20476;-54
2022/04/25 11:24:25;;;;;;;12.75;5.45;;;;;;;10.07;70.51;100380.91;5052530;28;20049;-52
2022/04/25 11:26:58;;;;;;;10.52;5.30;;;;;;;10.07;70.94;100387.81;5052108;28;20053;-55
2022/04/25 11:29:27;;;;;;;10.15;5.50;;;;;;;10.05;71.00;100390.44;5038691;28;20042;-53
2022/04/25 11:32:35;;;;;;;13.70;5.88;;;;;;;10.03;70.26;100388.72;5041395;28;20121;-53
2022/04/25 11:35:05;;;;;;;8.38;5.07;;;;;;;10.00;70.94;100399.97;5040210;28;20087;-55
2022/04/25 11:37:36;;;;;;;12.77;5.55;;;;;;;10.03;71.17;100397.34;5041269;28;20452;-55
2022/04/25 11:40:10;;;;;;;10.40;5.53;;;;;;;10.04;70.82;100393.91;5049725;28;20063;-55
2022/04/25 11:42:41;;;;;;;11.60;5.53;;;;;;;10.04;70.96;100403.41;5045156;28;20057;-53
2022/04/25 11:45:09;;;;;;;11.27;6.93;;;;;;;10.04;70.95;100406.84;5043406;28;20072;-55
2022/04/25 11:47:35;;;;;;;13.93;5.60;;;;;;;10.00;71.05;100407.75;5050871;28;20413;-51
2022/04/25 11:50:05;;;;;;;11.85;5.90;;;;;;;10.01;71.06;100409.47;5050789;28;20079;-55
2022/04/25 11:52:32;;;;;;;9.10;5.43;;;;;;;9.97;71.17;100406.94;5050701;28;20053;-52
2022/04/25 11:54:58;;;;;;;12.00;5.45;;;;;;;9.94;71.01;100410.41;5051029;28;20053;-51
2022/04/25 11:57:26;;;;;;;12.73;6.38;;;;;;;9.93;71.12;100411.28;5050368;28;20386;-52
2022/04/25 12:00:16;;;;;;;11.93;6.25;;;;;;;9.94;70.70;100418.19;5045133;28;20469;-53
2022/04/25 12:02:43;;;;;;;12.30;6.20;;;;;;;9.93;71.39;100416.47;5046613;28;20049;-58
2022/04/25 12:05:11;;;;;;;14.23;6.55;;;;;;;9.99;71.11;100418.97;5054985;28;20049;-57
2022/04/25 12:07:38;;;;;;;12.30;5.95;;;;;;;10.03;71.38;100420.66;5055377;28;20049;-57
2022/04/25 12:15:40;;;;;;;13.60;6.03;;;;;;;10.07;70.79;100419.75;5047092;28;20056;-53
2022/04/25 12:18:18;;;;;;;13.98;7.43;;;;;;;10.07;70.62;100424.94;5054985;28;20049;-52
2022/04/25 12:20:49;;;;;;;13.85;6.30;;;;;;;10.07;70.00;100427.53;5055454;28;20119;-53
2022/04/25 12:23:23;;;;;;;13.55;7.47;;;;;;;10.06;70.46;100431.00;5054618;28;20488;-53
2022/04/25 12:25:51;;;;;;;13.98;7.53;;;;;;;10.07;70.84;100435.28;5036260;28;20049;-53
2022/04/25 12:28:19;;;;;;;12.75;6.13;;;;;;;10.08;70.71;100442.19;5051941;28;20136;-59
2022/04/25 12:30:52;;;;;;;13.57;6.40;;;;;;;10.11;70.80;100442.16;5047299;28;20063;-51
2022/04/25 12:33:22;;;;;;;14.35;6.57;;;;;;;10.10;70.98;100449.94;5055318;28;20056;-53
2022/04/25 12:35:51;;;;;;;12.65;7.03;;;;;;;10.13;71.07;100455.94;5038784;28;20040;-53
2022/04/25 12:38:40;;;;;;;12.15;6.72;;;;;;;10.14;70.71;100443.84;5055167;28;20385;-57